Time;durP1;ratioP1;P1;durP2;ratioP2;P2;SDS_P1;SDS_P2;PMS_P1;PMS_P2;Temp;Humidity;BMP_temperature;BMP_pressure;BME280_temperature;BME280_humidity;BME280_pressure;Samples;Min_cycle;Max_cycle;Signal;HPM_P1;HPM_P2
2022/12/02 00:00:47;;;;;;;68.57;27.55;;;;;;;4.79;100.00;102659.56;5053675;28;20024;-35
2022/12/02 00:03:17;;;;;;;69.97;28.15;;;;;;;4.79;100.00;102647.09;5066945;28;20090;-35
2022/12/02 00:05:43;;;;;;;64.82;27.17;;;;;;;4.84;100.00;102654.78;5053274;28;20024;-37
2022/12/02 00:08:23;;;;;;;66.80;27.77;;;;;;;4.91;100.00;102648.09;5058337;28;20471;-38
2022/12/02 00:10:50;;;;;;;73.63;29.50;;;;;;;4.89;100.00;102650.00;5059867;28;20116;-35
2022/12/02 00:13:25;;;;;;;71.72;28.08;;;;;;;4.89;100.00;102644.66;5063884;28;20499;-38
2022/12/02 00:15:55;;;;;;;67.10;28.20;;;;;;;4.89;100.00;102635.81;5056313;28;20467;-36
2022/12/02 00:18:20;;;;;;;67.50;28.08;;;;;;;4.94;100.00;102645.22;5052449;28;20110;-38
2022/12/02 00:20:46;;;;;;;70.63;28.40;;;;;;;5.00;100.00;102636.84;5053146;28;20087;-38
2022/12/02 00:23:11;;;;;;;67.57;27.92;;;;;;;4.97;100.00;102633.50;5056855;28;20079;-38
2022/12/02 00:25:37;;;;;;;75.57;28.73;;;;;;;5.01;100.00;102629.69;5067337;28;20053;-36
2022/12/02 00:28:03;;;;;;;69.60;29.35;;;;;;;5.02;100.00;102628.72;5073235;28;20083;-36
2022/12/02 00:30:28;;;;;;;73.28;29.55;;;;;;;4.99;100.00;102629.75;5066190;28;20261;-37
2022/12/02 00:32:54;;;;;;;73.47;30.08;;;;;;;4.98;100.00;102622.72;5053981;28;20032;-36
2022/12/02 00:35:20;;;;;;;81.88;29.73;;;;;;;5.01;100.00;102627.84;5065095;28;20116;-36
2022/12/02 00:37:45;;;;;;;73.28;30.13;;;;;;;5.02;100.00;102624.22;5073184;28;20029;-35
2022/12/02 00:40:11;;;;;;;71.30;30.38;;;;;;;5.06;100.00;102620.41;5072923;28;20058;-36
2022/12/02 00:42:37;;;;;;;72.20;29.70;;;;;;;5.01;100.00;102625.19;5067920;28;20032;-37
2022/12/02 00:47:47;;;;;;;70.22;29.63;;;;;;;4.93;100.00;102614.16;5073182;28;20514;-37
2022/12/02 00:50:12;;;;;;;72.95;29.42;;;;;;;4.94;100.00;102615.88;5072886;28;20024;-37
2022/12/02 00:52:37;;;;;;;72.82;29.75;;;;;;;4.96;100.00;102619.31;5055498;28;20021;-35
2022/12/02 00:55:03;;;;;;;69.60;28.83;;;;;;;4.93;100.00;102619.50;5061787;28;20032;-38
2022/12/02 00:57:28;;;;;;;73.43;30.35;;;;;;;4.97;100.00;102615.66;5072451;28;20028;-35
2022/12/02 00:59:54;;;;;;;74.85;29.77;;;;;;;4.96;100.00;102608.63;5065895;28;20029;-35
2022/12/02 01:02:19;;;;;;;75.90;30.08;;;;;;;4.95;100.00;102606.94;5054216;28;20039;-35
2022/12/02 01:04:44;;;;;;;74.30;30.30;;;;;;;4.96;100.00;102607.78;5066197;28;20642;-38
2022/12/02 01:07:10;;;;;;;75.07;30.55;;;;;;;4.91;100.00;102605.41;5052897;28;20373;-35
2022/12/02 01:09:35;;;;;;;76.20;30.70;;;;;;;4.91;100.00;102609.91;5053116;28;20039;-35
2022/12/02 01:12:01;;;;;;;75.13;30.77;;;;;;;4.89;100.00;102612.66;5058599;28;20052;-37
2022/12/02 01:14:27;;;;;;;81.15;32.83;;;;;;;4.83;100.00;102610.41;5066969;28;20352;-39
2022/12/02 01:16:52;;;;;;;76.85;31.70;;;;;;;4.85;100.00;102605.81;5053518;28;20053;-36
2022/12/02 01:19:17;;;;;;;77.80;32.10;;;;;;;4.83;100.00;102613.06;5053358;28;20037;-36
2022/12/02 01:21:43;;;;;;;77.15;32.08;;;;;;;4.83;100.00;102613.06;5052554;28;20055;-34
2022/12/02 01:24:08;;;;;;;83.60;32.28;;;;;;;4.76;100.00;102611.75;5056812;28;20136;-34
2022/12/02 01:26:33;;;;;;;91.22;33.95;;;;;;;4.77;100.00;102610.81;5052934;28;20053;-35
2022/12/02 01:28:59;;;;;;;81.15;33.00;;;;;;;4.82;100.00;102619.38;5051769;28;20074;-35
2022/12/02 01:31:24;;;;;;;84.68;33.35;;;;;;;4.87;100.00;102619.03;5052563;28;20108;-35
2022/12/02 01:33:49;;;;;;;87.18;33.72;;;;;;;4.87;100.00;102611.91;5061794;28;20017;-37
2022/12/02 01:36:15;;;;;;;88.75;33.47;;;;;;;4.94;100.00;102609.69;5054467;28;20116;-35
2022/12/02 01:38:40;;;;;;;89.43;34.65;;;;;;;4.91;100.00;102621.41;5051833;28;20116;-35
2022/12/02 01:41:06;;;;;;;90.57;34.65;;;;;;;4.91;100.00;102615.22;5051571;28;20036;-36
2022/12/02 01:43:31;;;;;;;89.78;35.22;;;;;;;4.89;100.00;102615.31;5050078;28;20483;-37
2022/12/02 01:45:57;;;;;;;93.55;36.28;;;;;;;4.91;100.00;102613.41;5054889;28;20036;-35
2022/12/02 01:48:22;;;;;;;98.85;36.15;;;;;;;4.88;100.00;102618.09;5051690;28;20419;-35
2022/12/02 01:50:48;;;;;;;95.03;35.72;;;;;;;4.91;100.00;102617.91;5052612;28;20086;-38
2022/12/02 01:53:14;;;;;;;93.05;35.80;;;;;;;4.84;100.00;102617.44;5054127;28;20491;-35
2022/12/02 01:55:39;;;;;;;105.53;37.15;;;;;;;4.83;100.00;102618.41;5059198;28;20037;-35
2022/12/02 01:58:05;;;;;;;95.30;37.05;;;;;;;4.89;100.00;102617.13;5051697;28;20052;-36
2022/12/02 02:00:30;;;;;;;109.15;40.63;;;;;;;4.89;100.00;102617.97;5053531;28;20394;-34
2022/12/02 02:02:56;;;;;;;98.57;38.53;;;;;;;4.81;100.00;102610.47;5064007;28;20025;-34
2022/12/02 02:05:29;;;;;;;106.20;40.05;;;;;;;4.85;100.00;102616.50;5060117;28;20024;-35
2022/12/02 02:08:03;;;;;;;106.40;40.95;;;;;;;4.89;100.00;102617.97;5070411;28;20434;-34
2022/12/02 02:10:28;;;;;;;103.20;39.72;;;;;;;4.89;100.00;102622.47;5069215;28;20024;-34
2022/12/02 02:12:54;;;;;;;102.50;40.75;;;;;;;4.91;100.00;102610.75;5071142;28;20020;-37
2022/12/02 02:15:20;;;;;;;107.82;39.15;;;;;;;4.85;100.00;102600.50;5060138;28;20472;-35
2022/12/02 02:17:45;;;;;;;106.68;39.65;;;;;;;4.84;100.00;102604.09;5068771;28;20040;-36
2022/12/02 02:20:19;;;;;;;102.63;39.92;;;;;;;4.81;100.00;102590.97;5066794;28;20075;-35
2022/12/02 02:22:49;;;;;;;106.32;41.13;;;;;;;4.77;100.00;102595.66;5051049;28;20460;-35
2022/12/02 02:25:15;;;;;;;103.88;40.78;;;;;;;4.75;100.00;102588.72;5058583;28;20040;-36
2022/12/02 02:27:50;;;;;;;99.82;39.67;;;;;;;4.72;100.00;102595.09;5060900;28;20033;-35
2022/12/02 02:30:16;;;;;;;106.65;42.00;;;;;;;4.65;100.00;102585.78;5070865;28;20441;-35
2022/12/02 02:32:41;;;;;;;98.80;39.38;;;;;;;4.63;100.00;102574.34;5066123;28;20100;-35
2022/12/02 02:35:07;;;;;;;107.68;40.70;;;;;;;4.56;100.00;102575.72;5038105;28;20032;-35
2022/12/02 02:37:33;;;;;;;108.00;42.83;;;;;;;4.52;100.00;102574.22;5062830;28;20045;-35
2022/12/02 02:39:58;;;;;;;103.55;41.25;;;;;;;4.51;100.00;102565.34;5050760;28;20347;-35
2022/12/02 02:42:23;;;;;;;106.90;42.03;;;;;;;4.42;100.00;102563.28;5050736;28;20029;-38
2022/12/02 02:44:49;;;;;;;110.80;42.47;;;;;;;4.46;100.00;102572.81;5052670;28;20491;-35
2022/12/02 02:47:15;;;;;;;102.15;41.35;;;;;;;4.46;100.00;102587.94;5050751;28;20025;-35
2022/12/02 02:49:40;;;;;;;115.32;41.10;;;;;;;4.41;100.00;102582.91;5050458;28;20025;-35
2022/12/02 02:52:06;;;;;;;111.57;42.60;;;;;;;4.44;100.00;102573.84;5048914;28;20060;-35
2022/12/02 02:54:31;;;;;;;108.63;41.42;;;;;;;4.42;100.00;102581.94;5050024;28;20032;-35
2022/12/02 02:56:56;;;;;;;109.68;41.63;;;;;;;4.44;100.00;102565.84;5050364;28;20057;-35
2022/12/02 02:59:22;;;;;;;116.00;41.75;;;;;;;4.42;100.00;102559.75;5050463;28;20482;-36
2022/12/02 03:01:49;;;;;;;107.85;40.22;;;;;;;4.39;100.00;102564.31;5067810;28;20393;-36
2022/12/02 03:04:15;;;;;;;108.95;41.80;;;;;;;4.42;100.00;102555.28;5070139;28;20020;-36
2022/12/02 03:06:42;;;;;;;120.45;44.17;;;;;;;4.45;100.00;102560.44;5063051;28;20025;-37
2022/12/02 03:09:09;;;;;;;103.47;41.28;;;;;;;4.49;100.00;102556.59;5051841;28;20507;-35
2022/12/02 03:11:35;;;;;;;114.03;42.00;;;;;;;4.48;100.00;102554.91;5050172;28;20150;-35
2022/12/02 03:14:02;;;;;;;114.85;40.55;;;;;;;4.45;100.00;102549.78;5063264;28;20287;-35
2022/12/02 03:16:28;;;;;;;101.05;39.35;;;;;;;4.43;100.00;102546.34;5049715;28;20077;-35
2022/12/02 03:18:54;;;;;;;107.40;40.40;;;;;;;4.47;100.00;102552.31;5050245;28;20032;-36
2022/12/02 03:21:19;;;;;;;110.15;39.33;;;;;;;4.47;100.00;102550.50;5051878;28;20404;-38
2022/12/02 03:23:46;;;;;;;103.07;37.92;;;;;;;4.48;100.00;102546.91;5051112;28;20029;-35
2022/12/02 03:26:12;;;;;;;107.55;39.65;;;;;;;4.43;100.00;102554.34;5047808;28;20060;-36
2022/12/02 03:28:38;;;;;;;103.15;38.20;;;;;;;4.43;100.00;102551.69;5049629;28;20043;-36
2022/12/02 03:31:03;;;;;;;106.90;38.33;;;;;;;4.46;100.00;102556.81;5060156;28;20028;-35
2022/12/02 03:33:29;;;;;;;104.28;38.70;;;;;;;4.45;100.00;102549.78;5053950;28;20517;-35
2022/12/02 03:35:54;;;;;;;103.32;38.30;;;;;;;4.48;100.00;102554.06;5049387;28;20068;-35
2022/12/02 03:38:20;;;;;;;102.35;36.65;;;;;;;4.50;100.00;102542.34;5057497;28;20179;-36
2022/12/02 03:40:45;;;;;;;99.97;37.08;;;;;;;4.47;100.00;102542.50;5048339;28;20119;-36
2022/12/02 03:43:11;;;;;;;104.25;37.80;;;;;;;4.49;100.00;102548.59;5048851;28;20029;-34
2022/12/02 03:45:36;;;;;;;100.20;35.78;;;;;;;4.45;100.00;102536.44;5058989;28;20021;-35
2022/12/02 03:48:03;;;;;;;108.72;37.15;;;;;;;4.38;100.00;102529.78;5053619;28;20056;-35
2022/12/02 03:50:28;;;;;;;112.88;40.05;;;;;;;4.36;100.00;102524.56;5049370;28;20027;-36
2022/12/02 03:52:54;;;;;;;106.38;38.33;;;;;;;4.34;100.00;102520.28;5048713;28;20112;-34
2022/12/02 03:55:20;;;;;;;109.53;36.22;;;;;;;4.42;100.00;102533.09;5050050;28;20060;-36
2022/12/02 03:57:45;;;;;;;102.68;35.70;;;;;;;4.40;100.00;102520.75;5058932;28;20031;-36
2022/12/02 04:00:11;;;;;;;104.28;37.63;;;;;;;4.38;100.00;102525.31;5068093;28;20120;-35
2022/12/02 04:02:37;;;;;;;108.80;35.20;;;;;;;4.39;100.00;102529.66;5070104;28;20051;-35
2022/12/02 04:05:02;;;;;;;104.00;37.22;;;;;;;4.39;100.00;102527.00;5066755;28;20032;-35
2022/12/02 04:07:27;;;;;;;105.30;36.90;;;;;;;4.37;100.00;102528.94;5059026;28;20051;-35
2022/12/02 04:09:53;;;;;;;103.43;37.78;;;;;;;4.42;100.00;102517.94;5069587;28;20438;-35
2022/12/02 04:12:18;;;;;;;110.90;37.15;;;;;;;4.40;100.00;102514.56;5068202;28;20352;-35
2022/12/02 04:14:43;;;;;;;101.72;35.72;;;;;;;4.39;100.00;102515.50;5069297;28;20035;-35
2022/12/02 04:17:09;;;;;;;101.70;38.20;;;;;;;4.35;100.00;102514.00;5068509;28;20017;-37
2022/12/02 04:19:34;;;;;;;106.32;37.20;;;;;;;4.30;100.00;102508.13;5069383;28;20115;-36
2022/12/02 04:21:59;;;;;;;107.80;36.08;;;;;;;4.32;100.00;102506.22;5068527;28;20024;-36
2022/12/02 04:24:25;;;;;;;107.13;38.20;;;;;;;4.32;100.00;102503.56;5068134;28;20479;-35
2022/12/02 04:26:50;;;;;;;101.53;36.25;;;;;;;4.39;100.00;102508.34;5049084;28;20186;-36
2022/12/02 04:29:15;;;;;;;109.82;37.35;;;;;;;4.38;100.00;102505.81;5048657;28;20033;-35
2022/12/02 04:31:41;;;;;;;110.32;37.97;;;;;;;4.45;100.00;102512.44;5049056;28;20021;-36
2022/12/02 04:34:06;;;;;;;100.90;36.38;;;;;;;4.41;100.00;102505.59;5049245;28;20024;-35
2022/12/02 04:36:31;;;;;;;105.55;36.63;;;;;;;4.46;100.00;102510.63;5066884;28;20163;-34
2022/12/02 04:38:57;;;;;;;106.60;36.15;;;;;;;4.45;100.00;102500.91;5058012;28;20052;-35
2022/12/02 04:41:22;;;;;;;118.53;40.10;;;;;;;4.46;100.00;102494.63;5048901;28;20313;-38
2022/12/02 04:43:48;;;;;;;102.20;37.00;;;;;;;4.47;100.00;102486.50;5049335;28;20395;-35
2022/12/02 04:46:13;;;;;;;101.85;39.20;;;;;;;4.46;100.00;102497.31;5062882;28;20056;-36
2022/12/02 04:48:38;;;;;;;104.30;37.92;;;;;;;4.46;100.00;102492.81;5064825;28;20079;-38
2022/12/02 04:51:04;;;;;;;114.07;38.85;;;;;;;4.53;100.00;102490.59;5067231;28;20106;-35
2022/12/02 04:53:29;;;;;;;103.47;37.45;;;;;;;4.50;100.00;102489.00;5059458;28;20043;-35
2022/12/02 04:55:54;;;;;;;100.38;36.47;;;;;;;4.48;100.00;102477.59;5053273;28;20472;-36
2022/12/02 04:58:20;;;;;;;96.57;35.00;;;;;;;4.45;100.00;102477.78;5054062;28;20021;-36
2022/12/02 05:00:45;;;;;;;103.80;37.05;;;;;;;4.53;100.00;102479.91;5065966;28;20024;-36
2022/12/02 05:03:10;;;;;;;97.68;35.72;;;;;;;4.55;100.00;102470.00;5060698;28;20021;-37
2022/12/02 05:05:36;;;;;;;92.65;33.38;;;;;;;4.51;100.00;102469.38;5060351;28;20058;-36
2022/12/02 05:08:01;;;;;;;91.05;34.30;;;;;;;4.47;100.00;102473.19;5068608;28;20111;-36
2022/12/02 05:10:26;;;;;;;89.90;33.00;;;;;;;4.44;100.00;102478.72;5062133;28;20021;-37
2022/12/02 05:12:52;;;;;;;92.18;32.17;;;;;;;4.40;100.00;102467.44;5064243;28;20028;-37
2022/12/02 05:15:18;;;;;;;80.25;30.10;;;;;;;4.40;100.00;102471.91;5071240;28;20020;-36
2022/12/02 05:17:44;;;;;;;78.10;29.83;;;;;;;4.40;100.00;102474.56;5068911;28;20028;-36
2022/12/02 05:20:10;;;;;;;75.60;28.55;;;;;;;4.44;100.00;102473.41;5063084;28;20055;-36
2022/12/02 05:22:35;;;;;;;68.82;26.92;;;;;;;4.37;100.00;102466.75;5052249;28;20100;-36
2022/12/02 05:25:01;;;;;;;64.22;25.63;;;;;;;4.33;100.00;102465.25;5066198;28;20531;-35
2022/12/02 05:27:26;;;;;;;67.35;26.15;;;;;;;4.25;100.00;102463.09;5072176;28;20131;-35
2022/12/02 05:29:52;;;;;;;65.95;26.10;;;;;;;4.17;100.00;102468.94;5069252;28;20119;-37
2022/12/02 05:32:17;;;;;;;70.10;25.70;;;;;;;4.14;100.00;102465.63;5052079;28;20083;-35
2022/12/02 05:34:42;;;;;;;65.95;24.45;;;;;;;4.13;100.00;102470.09;5054447;28;20090;-38
2022/12/02 05:37:08;;;;;;;67.20;24.70;;;;;;;4.10;100.00;102464.94;5053704;28;20760;-35
2022/12/02 05:39:33;;;;;;;71.90;25.33;;;;;;;4.05;100.00;102477.72;5069728;28;20033;-38
2022/12/02 05:42:01;;;;;;;65.38;25.88;;;;;;;4.06;100.00;102468.78;5052889;28;20032;-37
2022/12/02 05:44:27;;;;;;;62.30;24.30;;;;;;;4.06;100.00;102479.44;5051947;28;20449;-35
2022/12/02 05:46:58;;;;;;;63.45;25.08;;;;;;;4.02;100.00;102471.75;5051914;28;20029;-36
2022/12/02 05:49:23;;;;;;;69.38;25.40;;;;;;;4.04;100.00;102473.34;5050129;28;20048;-36
2022/12/02 05:51:57;;;;;;;66.45;24.65;;;;;;;4.00;100.00;102477.16;5065003;28;20429;-36
2022/12/02 05:54:23;;;;;;;66.57;25.30;;;;;;;4.04;100.00;102469.84;5072097;28;20046;-35
2022/12/02 05:56:48;;;;;;;61.55;25.88;;;;;;;4.04;100.00;102468.03;5061279;28;20447;-36
2022/12/02 05:59:18;;;;;;;62.95;23.70;;;;;;;4.08;100.00;102466.88;5052192;28;20052;-35
2022/12/02 06:01:48;;;;;;;67.70;25.52;;;;;;;4.09;100.00;102473.91;5051485;28;20116;-36
2022/12/02 06:04:17;;;;;;;68.78;25.40;;;;;;;4.08;100.00;102464.22;5052953;28;20037;-35
2022/12/02 06:06:43;;;;;;;72.32;25.23;;;;;;;4.09;100.00;102465.91;5051164;28;20472;-37
2022/12/02 06:09:26;;;;;;;64.07;23.98;;;;;;;4.04;100.00;102462.69;5050530;28;20067;-36
2022/12/02 06:11:52;;;;;;;74.80;26.60;;;;;;;4.06;100.00;102458.13;5052321;28;20063;-36
2022/12/02 06:14:19;;;;;;;66.25;25.02;;;;;;;4.05;100.00;102463.53;5058973;28;20056;-36
2022/12/02 06:16:48;;;;;;;74.97;26.48;;;;;;;4.06;100.00;102468.78;5049432;28;20128;-35
2022/12/02 06:19:41;;;;;;;74.78;27.67;;;;;;;4.05;100.00;102469.72;5063205;28;20043;-36
2022/12/02 06:22:13;;;;;;;68.38;26.42;;;;;;;4.05;100.00;102471.53;5064127;28;20110;-36
2022/12/02 06:24:39;;;;;;;76.38;28.02;;;;;;;4.07;100.00;102475.81;5070066;28;20537;-35
2022/12/02 06:27:04;;;;;;;72.53;27.50;;;;;;;4.08;100.00;102474.88;5052814;28;20110;-36
2022/12/02 06:29:29;;;;;;;74.45;26.52;;;;;;;4.08;100.00;102472.22;5057884;28;20064;-38
2022/12/02 06:31:55;;;;;;;69.95;25.35;;;;;;;4.12;100.00;102468.38;5054504;28;20033;-37
2022/12/02 06:34:30;;;;;;;80.97;28.63;;;;;;;4.08;100.00;102456.22;5050428;28;20104;-38
2022/12/02 06:36:57;;;;;;;71.93;27.05;;;;;;;4.07;100.00;102466.97;5054310;28;20110;-36
2022/12/02 06:39:23;;;;;;;77.28;26.30;;;;;;;4.05;100.00;102471.53;5064124;28;20494;-35
2022/12/02 06:41:49;;;;;;;71.18;26.17;;;;;;;4.08;100.00;102466.88;5058585;28;20108;-37
2022/12/02 06:47:36;;;;;;;74.10;26.38;;;;;;;4.08;100.00;102464.22;5058440;28;20170;-38
2022/12/02 06:50:04;;;;;;;76.35;25.30;;;;;;;4.03;100.00;102463.66;5053861;28;20024;-37
2022/12/02 06:52:32;;;;;;;74.18;25.40;;;;;;;4.00;100.00;102458.50;5064552;28;20037;-37
2022/12/02 06:54:58;;;;;;;76.50;26.65;;;;;;;4.06;100.00;102463.47;5066915;28;20025;-37
2022/12/02 06:57:23;;;;;;;80.05;26.25;;;;;;;4.08;100.00;102466.88;5060652;28;20102;-37
2022/12/02 06:59:50;;;;;;;78.00;26.48;;;;;;;4.03;100.00;102462.78;5049569;28;20029;-35
2022/12/02 07:02:36;;;;;;;77.05;25.58;;;;;;;4.06;100.00;102468.78;5051567;28;20079;-36
2022/12/02 07:05:01;;;;;;;78.18;26.27;;;;;;;4.06;100.00;102473.25;5055141;28;20105;-36
2022/12/02 07:07:29;;;;;;;74.35;25.20;;;;;;;4.09;100.00;102468.56;5059160;28;20128;-36
2022/12/02 07:10:14;;;;;;;79.37;26.40;;;;;;;4.06;100.00;102474.13;5058423;28;20048;-36
2022/12/02 07:12:41;;;;;;;81.53;28.35;;;;;;;3.99;100.00;102475.44;5051570;28;20456;-36
2022/12/02 07:15:27;;;;;;;72.45;25.58;;;;;;;3.97;100.00;102474.69;5050885;28;20036;-37
2022/12/02 07:17:56;;;;;;;79.50;27.70;;;;;;;3.90;100.00;102473.41;5058625;28;20120;-36
2022/12/02 07:20:30;;;;;;;79.63;25.48;;;;;;;3.89;100.00;102482.31;5054529;28;20092;-36
2022/12/02 07:23:01;;;;;;;76.68;25.65;;;;;;;3.91;100.00;102478.59;5061269;28;20304;-37
2022/12/02 07:25:41;;;;;;;83.30;26.63;;;;;;;3.91;100.00;102478.59;5051970;28;20039;-36
2022/12/02 07:28:23;;;;;;;78.25;26.02;;;;;;;3.89;100.00;102480.50;5051119;28;20025;-37
2022/12/02 07:31:01;;;;;;;78.50;25.15;;;;;;;3.80;100.00;102475.78;5054715;28;20032;-36
2022/12/02 07:33:27;;;;;;;67.30;24.17;;;;;;;3.68;100.00;102476.56;5068068;28;20153;-36
2022/12/02 07:35:53;;;;;;;77.25;26.52;;;;;;;3.66;100.00;102481.13;5062561;28;20033;-38
2022/12/02 07:38:18;;;;;;;73.20;25.63;;;;;;;3.59;100.00;102488.66;5051213;28;20037;-37
2022/12/02 07:40:44;;;;;;;64.60;24.52;;;;;;;3.56;100.00;102488.84;5048256;28;20511;-38
2022/12/02 07:43:09;;;;;;;75.47;24.58;;;;;;;3.50;100.00;102481.22;5060013;28;20021;-38
2022/12/02 07:45:35;;;;;;;74.25;24.75;;;;;;;3.44;100.00;102478.94;5057748;28;20032;-36
2022/12/02 07:48:00;;;;;;;73.78;24.98;;;;;;;3.36;100.00;102494.53;5059627;28;20025;-35
2022/12/02 07:50:25;;;;;;;71.05;23.90;;;;;;;3.35;100.00;102490.19;5059469;28;20094;-36
2022/12/02 07:52:51;;;;;;;67.00;23.52;;;;;;;3.28;100.00;102481.69;5060250;28;20096;-37
2022/12/02 07:55:16;;;;;;;70.88;22.85;;;;;;;3.23;100.00;102487.28;5057739;28;20025;-36
2022/12/02 07:57:42;;;;;;;64.50;21.80;;;;;;;3.17;100.00;102495.66;5059531;28;20040;-38
2022/12/02 08:00:09;;;;;;;74.47;22.98;;;;;;;3.15;100.00;102491.38;5057468;28;20463;-36
2022/12/02 08:02:34;;;;;;;70.45;24.10;;;;;;;3.12;100.00;102492.44;5059904;28;20129;-35
2022/12/02 08:04:59;;;;;;;70.53;23.30;;;;;;;3.12;100.00;102495.09;5055964;28;20108;-35
2022/12/02 08:07:24;;;;;;;65.90;22.20;;;;;;;3.07;100.00;102495.34;5059863;28;20111;-37
2022/12/02 08:09:50;;;;;;;74.53;22.08;;;;;;;3.05;100.00;102494.63;5056508;28;20027;-36
2022/12/02 08:12:15;;;;;;;68.65;22.13;;;;;;;3.01;100.00;102498.41;5061289;28;20052;-35
2022/12/02 08:14:40;;;;;;;69.50;22.42;;;;;;;3.01;100.00;102495.72;5059189;28;20024;-34
2022/12/02 08:17:06;;;;;;;57.78;21.30;;;;;;;2.99;100.00;102502.09;5060177;28;20083;-34
2022/12/02 08:19:31;;;;;;;68.88;22.15;;;;;;;3.02;100.00;102496.59;5058083;28;20107;-35
2022/12/02 08:21:56;;;;;;;62.85;21.73;;;;;;;2.98;100.00;102495.06;5061518;28;20055;-35
2022/12/02 08:24:22;;;;;;;59.28;19.67;;;;;;;2.95;100.00;102500.56;5059528;28;20025;-37
2022/12/02 08:26:47;;;;;;;66.03;22.08;;;;;;;2.94;100.00;102499.69;5058726;28;20053;-35
2022/12/02 08:29:12;;;;;;;60.47;20.52;;;;;;;2.96;100.00;102494.31;5059272;28;20055;-35
2022/12/02 08:31:38;;;;;;;55.38;19.52;;;;;;;2.97;100.00;102503.97;5066486;28;20055;-36
2022/12/02 08:34:03;;;;;;;59.00;19.02;;;;;;;2.96;100.00;102491.66;5063642;28;20479;-36
2022/12/02 08:36:28;;;;;;;53.75;18.42;;;;;;;2.94;100.00;102488.22;5062564;28;20021;-35
2022/12/02 08:38:53;;;;;;;56.92;19.42;;;;;;;2.88;100.00;102496.56;5061448;28;20048;-35
2022/12/02 08:41:19;;;;;;;59.08;20.33;;;;;;;2.88;100.00;102502.75;5062228;28;20070;-36
2022/12/02 08:43:44;;;;;;;51.45;17.73;;;;;;;2.89;100.00;102484.97;5062966;28;20017;-36
2022/12/02 08:46:10;;;;;;;53.72;19.75;;;;;;;2.86;100.00;102497.50;5064118;28;20037;-36
2022/12/02 08:48:36;;;;;;;57.63;19.60;;;;;;;2.88;100.00;102493.91;5064853;28;20024;-35
2022/12/02 08:51:01;;;;;;;51.03;18.20;;;;;;;2.88;100.00;102500.06;5063349;28;20025;-35
2022/12/02 08:53:27;;;;;;;51.13;18.02;;;;;;;2.95;100.00;102492.56;5064754;28;20475;-35
2022/12/02 08:55:52;;;;;;;51.40;18.05;;;;;;;2.93;100.00;102502.47;5065673;28;20036;-35
2022/12/02 08:58:17;;;;;;;46.45;17.33;;;;;;;2.99;100.00;102502.09;5062349;28;20060;-35
2022/12/02 09:00:43;;;;;;;47.17;17.35;;;;;;;2.99;100.00;102507.41;5062290;28;20079;-36
2022/12/02 09:03:09;;;;;;;48.45;17.63;;;;;;;3.02;100.00;102496.59;5062489;28;20036;-36
2022/12/02 09:05:36;;;;;;;47.65;18.05;;;;;;;3.05;100.00;102502.59;5062536;28;20503;-38
2022/12/02 09:08:02;;;;;;;48.42;16.27;;;;;;;3.05;100.00;102488.41;5062136;28;20106;-36
2022/12/02 09:10:27;;;;;;;45.55;16.48;;;;;;;3.08;100.00;102497.09;5063304;28;20052;-36
2022/12/02 09:12:53;;;;;;;46.15;17.08;;;;;;;3.11;100.00;102488.06;5064779;28;20029;-36
2022/12/02 09:15:19;;;;;;;47.35;16.60;;;;;;;3.16;100.00;102493.97;5062512;28;20025;-36
2022/12/02 09:17:45;;;;;;;43.25;15.52;;;;;;;3.20;100.00;102495.47;5063280;28;20067;-36
2022/12/02 09:20:11;;;;;;;47.72;17.25;;;;;;;3.27;100.00;102496.81;5064084;28;20469;-36
2022/12/02 09:22:36;;;;;;;43.55;17.85;;;;;;;3.38;100.00;102501.47;5063413;28;20395;-36
2022/12/02 09:25:01;;;;;;;45.95;17.98;;;;;;;3.44;100.00;102508.22;5063299;28;20678;-38
2022/12/02 09:27:27;;;;;;;38.75;16.38;;;;;;;3.54;100.00;102488.06;5059670;28;20440;-37
2022/12/02 09:29:52;;;;;;;43.03;16.13;;;;;;;3.60;100.00;102493.00;5060468;28;20053;-40
2022/12/02 09:32:18;;;;;;;40.15;16.27;;;;;;;3.68;100.00;102490.72;5062476;28;20498;-37
2022/12/02 09:34:43;;;;;;;40.40;16.63;;;;;;;3.74;100.00;102493.00;5063370;28;20051;-37
2022/12/02 09:37:08;;;;;;;41.53;15.77;;;;;;;3.74;100.00;102489.50;5062212;28;20027;-39
2022/12/02 09:39:34;;;;;;;43.17;17.05;;;;;;;3.76;100.00;102497.38;5065356;28;20051;-39
2022/12/02 09:41:59;;;;;;;42.13;15.68;;;;;;;3.78;100.00;102495.47;5060927;28;20032;-38
2022/12/02 09:44:25;;;;;;;39.92;15.48;;;;;;;3.81;100.00;102484.63;5061402;28;20067;-36
2022/12/02 09:46:50;;;;;;;40.70;15.73;;;;;;;3.86;100.00;102499.34;5042435;28;20059;-37
2022/12/02 09:49:16;;;;;;;35.38;15.40;;;;;;;3.91;100.00;102496.41;5058818;28;20073;-37
2022/12/02 09:51:42;;;;;;;38.35;14.77;;;;;;;3.92;100.00;102496.31;5062492;28;20033;-38
2022/12/02 09:54:10;;;;;;;32.58;13.75;;;;;;;3.94;100.00;102490.88;5059821;28;20466;-39
2022/12/02 09:56:36;;;;;;;37.75;15.07;;;;;;;3.92;100.00;102495.44;5059421;28;20040;-37
2022/12/02 09:59:06;;;;;;;32.72;13.98;;;;;;;3.96;100.00;102483.66;5059549;28;20017;-38
2022/12/02 10:01:31;;;;;;;32.92;13.70;;;;;;;3.98;100.00;102484.41;5061900;28;20454;-36
2022/12/02 10:03:56;;;;;;;36.90;14.68;;;;;;;4.05;100.00;102500.84;5062584;28;20111;-41
2022/12/02 10:06:24;;;;;;;32.35;13.93;;;;;;;4.02;100.00;102490.38;5061242;28;20064;-40
2022/12/02 10:08:50;;;;;;;36.30;13.68;;;;;;;3.92;100.00;102495.44;5060699;28;20021;-36
2022/12/02 10:11:26;;;;;;;34.72;13.98;;;;;;;3.84;100.00;102490.59;5057562;28;20028;-40
2022/12/02 10:13:51;;;;;;;37.30;13.90;;;;;;;3.82;100.00;102497.84;5059878;28;20035;-39
2022/12/02 10:16:17;;;;;;;35.10;12.85;;;;;;;3.91;100.00;102486.59;5060624;28;20036;-38
2022/12/02 10:18:42;;;;;;;32.13;14.13;;;;;;;4.10;100.00;102485.41;5067468;28;20047;-37
2022/12/02 10:21:08;;;;;;;35.97;14.43;;;;;;;4.30;100.00;102489.47;5069153;28;20094;-39
2022/12/02 10:23:52;;;;;;;32.65;14.18;;;;;;;4.47;100.00;102475.84;5052890;28;20032;-40
2022/12/02 10:26:17;;;;;;;34.80;14.60;;;;;;;4.57;100.00;102474.28;5053495;28;20114;-36
2022/12/02 10:28:57;;;;;;;35.15;13.48;;;;;;;4.58;100.00;102476.00;5054341;28;20052;-39
2022/12/02 10:31:23;;;;;;;31.95;14.38;;;;;;;4.54;100.00;102471.81;5052212;28;20417;-37
2022/12/02 10:33:52;;;;;;;31.08;13.20;;;;;;;4.43;100.00;102461.03;5060579;28;20047;-36
2022/12/02 10:36:38;;;;;;;33.58;14.63;;;;;;;4.46;100.00;102458.16;5069611;28;20036;-39
2022/12/02 10:39:28;;;;;;;38.03;14.85;;;;;;;4.40;100.00;102454.09;5060586;28;20024;-38
2022/12/02 10:42:02;;;;;;;31.33;13.73;;;;;;;4.37;100.00;102461.41;5070536;28;20460;-38
2022/12/02 10:44:27;;;;;;;35.70;14.18;;;;;;;4.30;100.00;102460.13;5071009;28;20032;-36
2022/12/02 10:47:15;;;;;;;29.13;12.90;;;;;;;4.13;100.00;102451.44;5067774;28;20613;-37
2022/12/02 10:49:49;;;;;;;40.22;14.73;;;;;;;4.17;100.00;102439.63;5070641;28;20033;-36
2022/12/02 10:52:16;;;;;;;35.78;15.10;;;;;;;4.67;100.00;102431.84;5068764;28;20043;-37
2022/12/02 10:54:45;;;;;;;36.40;14.45;;;;;;;5.22;100.00;102424.53;5062627;28;20048;-37
2022/12/02 10:57:21;;;;;;;34.70;14.52;;;;;;;5.76;100.00;102416.16;5050797;28;20029;-37
2022/12/02 10:59:46;;;;;;;35.28;14.00;;;;;;;6.23;100.00;102414.50;5049199;28;20058;-39
2022/12/02 11:02:34;;;;;;;37.25;14.30;;;;;;;6.40;99.58;102409.69;5050577;28;20024;-38
2022/12/02 11:05:11;;;;;;;34.60;13.57;;;;;;;6.44;98.03;102413.88;5066934;28;20029;-39
2022/12/02 11:07:36;;;;;;;30.98;14.15;;;;;;;6.35;98.29;102421.63;5049749;28;20053;-38
2022/12/02 11:10:02;;;;;;;37.17;15.82;;;;;;;6.21;98.70;102421.78;5050100;28;20151;-37
2022/12/02 11:12:46;;;;;;;36.33;15.75;;;;;;;5.99;99.71;102421.69;5051601;28;20052;-37